createdAt,value
2018-01-11T00:00:57.295Z,46.7
2018-01-11T00:10:57.541Z,45.2
2018-01-11T00:20:57.937Z,42.6
2018-01-11T00:30:57.666Z,46.0
2018-01-11T00:40:57.605Z,43.4
2018-01-11T00:50:57.413Z,45.7
2018-01-11T01:00:57.435Z,44.6
2018-01-11T01:10:57.865Z,43.3
2018-01-11T01:20:57.689Z,43.6
2018-01-11T01:30:57.635Z,46.9
2018-01-11T01:40:57.353Z,44.5
2018-01-11T01:50:57.043Z,44.4
2018-01-11T02:00:58.139Z,44.1
2018-01-11T02:10:57.828Z,42.5
2018-01-11T02:20:58.198Z,41.6
2018-01-11T02:30:58.101Z,43.1
2018-01-11T02:40:58.719Z,41.5
2018-01-11T02:50:57.440Z,40.6
2018-01-11T03:00:57.183Z,40.2
2018-01-11T03:10:58.495Z,39.5
2018-01-11T03:20:58.038Z,37.9
2018-01-11T03:30:59.075Z,38.5
2018-01-11T03:40:58.010Z,37.7
2018-01-11T03:50:58.060Z,37.4
2018-01-11T04:00:58.536Z,37.2
2018-01-11T04:10:57.998Z,40.2
2018-01-11T04:20:58.190Z,38.0
2018-01-11T04:30:58.187Z,36.0
2018-01-11T04:40:58.288Z,35.9
2018-01-11T04:50:58.022Z,36.8
2018-01-11T05:00:57.634Z,37.7
2018-01-11T05:10:58.250Z,37.8
2018-01-11T05:20:57.430Z,35.7
2018-01-11T05:30:58.456Z,38.7
2018-01-11T05:40:57.370Z,39.4
2018-01-11T05:50:57.180Z,40.1
2018-01-11T06:00:58.223Z,38.6
2018-01-11T06:10:57.946Z,38.5
2018-01-11T06:20:57.771Z,40.2
2018-01-11T06:30:58.401Z,39.4
2018-01-11T06:40:57.146Z,42.7
2018-01-11T06:50:57.780Z,39.7
2018-01-11T07:00:57.398Z,39.0
2018-01-11T07:10:57.619Z,40.6
2018-01-11T07:20:57.449Z,39.4
2018-01-11T07:30:57.670Z,41.8
2018-01-11T07:40:57.690Z,45.7
2018-01-11T07:50:57.409Z,47.3
2018-01-11T08:00:57.324Z,45.2
2018-01-11T08:10:57.450Z,41.7
2018-01-11T08:20:58.407Z,38.6
2018-01-11T08:30:57.923Z,35.0
2018-01-11T08:40:58.086Z,38.4
2018-01-11T08:50:57.995Z,32.7
2018-01-11T09:00:58.667Z,28.4
2018-01-11T09:10:57.339Z,32.4
2018-01-11T09:20:57.724Z,29.9
2018-01-11T09:30:58.172Z,32.5
2018-01-11T09:40:57.850Z,33.8
2018-01-11T09:50:57.677Z,36.5
2018-01-11T10:00:57.723Z,34.5
2018-01-11T10:10:57.658Z,31.8
2018-01-11T10:20:58.228Z,35.4
2018-01-11T10:30:58.120Z,36.4
2018-01-11T10:40:58.693Z,36.6
2018-01-11T10:50:58.489Z,39.1
2018-01-11T11:00:57.250Z,38.8
2018-01-11T11:10:57.913Z,37.5
2018-01-11T11:20:57.834Z,34.4
2018-01-11T11:30:58.163Z,37.5
2018-01-11T11:40:58.349Z,35.4
2018-01-11T11:50:57.596Z,36.1
2018-01-11T12:00:57.836Z,34.8
2018-01-11T12:10:57.617Z,33.2
2018-01-11T12:20:57.716Z,36.7
2018-01-11T12:30:57.478Z,37.5
2018-01-11T12:40:57.624Z,37.4
2018-01-11T12:50:57.365Z,34.6
2018-01-11T13:00:57.091Z,35.7
2018-01-11T13:10:58.034Z,35.3
2018-01-11T13:20:58.109Z,33.8
2018-01-11T13:30:57.867Z,34.7
2018-01-11T13:40:58.799Z,34.8
2018-01-11T13:50:58.049Z,36.9
2018-01-11T14:00:57.976Z,35.3
2018-01-11T14:11:02.107Z,40.3
2018-01-11T14:20:59.000Z,38.2
2018-01-11T14:30:58.048Z,39.3
2018-01-11T14:40:59.299Z,34.7
2018-01-11T14:50:58.221Z,40.0
2018-01-11T15:00:57.812Z,39.5
2018-01-11T15:10:59.327Z,38.5
2018-01-11T15:20:58.398Z,42.2
2018-01-11T15:30:58.060Z,40.7
2018-01-11T15:40:57.832Z,44.8
2018-01-11T15:50:57.813Z,45.4
2018-01-11T16:00:57.729Z,43.6
2018-01-11T16:10:57.829Z,70.3
2018-01-11T16:20:57.822Z,40.4
2018-01-11T16:30:57.558Z,35.1
2018-01-11T16:40:57.924Z,34.6
2018-01-11T16:50:58.130Z,36.0
2018-01-11T17:00:58.567Z,35.3
2018-01-11T17:10:57.729Z,36.4
2018-01-11T17:20:58.746Z,48.2
2018-01-11T17:30:58.199Z,37.5
2018-01-11T17:40:58.219Z,37.2
2018-01-11T17:50:58.492Z,39.6
2018-01-11T18:00:57.780Z,38.0
2018-01-11T18:10:57.822Z,37.0
2018-01-11T18:20:57.616Z,39.6
2018-01-11T18:30:57.833Z,33.1
2018-01-11T18:40:57.859Z,35.7
2018-01-11T18:50:58.136Z,35.6
2018-01-11T19:00:58.449Z,35.6
2018-01-11T19:10:57.520Z,37.3
2018-01-11T19:20:57.709Z,36.9
2018-01-11T19:30:57.446Z,35.8
2018-01-11T19:40:57.174Z,34.4
2018-01-11T19:50:58.196Z,34.1
2018-01-11T20:00:58.074Z,36.9
2018-01-11T20:10:57.798Z,38.6
2018-01-11T20:20:58.751Z,39.7
2018-01-11T20:30:57.892Z,30.3
2018-01-11T20:40:57.600Z,32.1
2018-01-11T20:50:57.620Z,30.8
2018-01-11T21:00:58.699Z,34.7
2018-01-11T21:10:57.925Z,33.1
2018-01-11T21:20:57.817Z,34.5
2018-01-11T21:30:57.907Z,36.4
2018-01-11T21:40:57.728Z,37.0
2018-01-11T21:50:57.956Z,34.2
2018-01-11T22:00:58.414Z,34.3
2018-01-11T22:10:57.364Z,34.1
2018-01-11T22:20:57.406Z,32.0
2018-01-11T22:30:57.313Z,32.7
2018-01-11T22:40:59.021Z,32.1
2018-01-11T22:50:57.810Z,34.4
2018-01-11T23:00:57.609Z,30.2
2018-01-11T23:10:57.759Z,35.5
2018-01-11T23:20:57.812Z,34.2
2018-01-11T23:30:58.657Z,32.0
2018-01-11T23:40:57.361Z,32.5
2018-01-11T23:50:57.618Z,32.6
